Accueil
METAR-TAF:

METAR-TAF

Aéroports :

Aéroport international Fuaʻamotu

Tongatapu, Tonga

latitude: 21-14S, longitude: 175-09W, altitude: 38 m

Observation

Le bulletin a été fait il y a 9 minutes, à 12:00 UTC
Vent 2 kt de direction variable
Température 19°C
Humidité 88%
Pression 1015 hPa
Visibilité 10 km ou plus
Quelques nuages à une hauteur de 1800 ft
Nuages épars à une hauteur de 11000 ft

METAR: NFTF 181200Z VRB02KT 9999 FEW018 SCT110 19/17 Q1015

Heure: 01:09 (12:09 UTC)

Prévision

Le bulletin a été fait il y a 1 heure et 6 minutes, à 11:03 UTC
Prévision valable du 18 à 12 UTC au 19 à 12 UTC
Vent 5 kt de est/sud-est
Visibilité 10 km ou plus
Quelques nuages à une hauteur de 1800 ft
Nuages épars à une hauteur de 10000 ft

TAF: NFTF 181103Z 1812/1912 11005KT 9999 FEW018 SCT100

Observations et prévisions météorologiques de plus de 4000 aéroports (messages METAR et TAF).

Les stations disponibles sont représentées par des disques jaunes et rouges sur la carte.

Passer la souris dessus pour voir le nom de la station.

Cliquer dessus pour voir les observations et prévisions météorologiques.

Pour changer de carte: cliquez sur les boutons verts avec une croix noire pour zoomer, sur le bouton vert avec un tiret pour effectuer un zoom arrière, ou sur les flèches vertes pour les cartes adjacentes.


METAR-TAF: